sensor_id;sensor_type;location;lat;lon;timestamp;P1;durP1;ratioP1;P2;durP2;ratioP2
13319;SDS011;59599;47.608;12.190;2022-11-12T05:00:58;3.80;;;2.60;;
13319;SDS011;59599;47.608;12.190;2022-11-12T05:03:25;4.13;;;3.03;;
13319;SDS011;59599;47.608;12.190;2022-11-12T05:05:51;4.33;;;3.00;;
13319;SDS011;59599;47.608;12.190;2022-11-12T05:08:17;3.27;;;2.23;;
13319;SDS011;59599;47.608;12.190;2022-11-12T05:10:43;3.20;;;2.13;;
13319;SDS011;59599;47.608;12.190;2022-11-12T05:13:08;3.20;;;2.20;;
13319;SDS011;59599;47.608;12.190;2022-11-12T05:15:34;2.47;;;2.07;;
13319;SDS011;59599;47.608;12.190;2022-11-12T05:17:59;2.20;;;2.00;;
13319;SDS011;59599;47.608;12.190;2022-11-12T05:20:25;7.23;;;3.20;;
13319;SDS011;59599;47.608;12.190;2022-11-12T05:22:51;9.53;;;6.33;;
13319;SDS011;59599;47.608;12.190;2022-11-12T05:25:16;11.03;;;8.37;;
13319;SDS011;59599;47.608;12.190;2022-11-12T05:27:42;4.57;;;3.97;;
13319;SDS011;59599;47.608;12.190;2022-11-12T05:30:08;3.70;;;2.77;;
13319;SDS011;59599;47.608;12.190;2022-11-12T05:32:34;4.60;;;3.80;;
13319;SDS011;59599;47.608;12.190;2022-11-12T05:35:00;5.20;;;3.70;;
13319;SDS011;59599;47.608;12.190;2022-11-12T05:37:25;6.40;;;2.87;;
13319;SDS011;59599;47.608;12.190;2022-11-12T05:39:51;4.47;;;3.20;;
13319;SDS011;59599;47.608;12.190;2022-11-12T05:42:17;2.60;;;2.17;;
13319;SDS011;59599;47.608;12.190;2022-11-12T05:44:42;3.37;;;2.30;;
13319;SDS011;59599;47.608;12.190;2022-11-12T05:47:08;4.80;;;2.70;;
13319;SDS011;59599;47.608;12.190;2022-11-12T05:49:34;3.53;;;2.70;;
13319;SDS011;59599;47.608;12.190;2022-11-12T05:51:59;5.63;;;2.43;;
13319;SDS011;59599;47.608;12.190;2022-11-12T05:54:25;6.03;;;5.00;;
13319;SDS011;59599;47.608;12.190;2022-11-12T05:56:51;7.73;;;6.07;;
13319;SDS011;59599;47.608;12.190;2022-11-12T05:59:17;9.23;;;7.93;;
13319;SDS011;59599;47.608;12.190;2022-11-12T06:01:43;5.77;;;3.23;;
13319;SDS011;59599;47.608;12.190;2022-11-12T06:04:15;5.07;;;4.10;;
13319;SDS011;59599;47.608;12.190;2022-11-12T06:06:41;8.43;;;4.63;;
13319;SDS011;59599;47.608;12.190;2022-11-12T06:09:07;4.63;;;3.50;;
13319;SDS011;59599;47.608;12.190;2022-11-12T06:11:33;4.10;;;3.27;;
13319;SDS011;59599;47.608;12.190;2022-11-12T06:13:59;5.90;;;4.83;;
13319;SDS011;59599;47.608;12.190;2022-11-12T06:16:25;5.37;;;3.60;;
13319;SDS011;59599;47.608;12.190;2022-11-12T06:18:51;9.17;;;5.43;;
13319;SDS011;59599;47.608;12.190;2022-11-12T06:21:16;6.70;;;4.83;;
13319;SDS011;59599;47.608;12.190;2022-11-12T06:23:47;6.77;;;4.57;;
13319;SDS011;59599;47.608;12.190;2022-11-12T06:26:14;4.57;;;3.00;;
13319;SDS011;59599;47.608;12.190;2022-11-12T06:28:40;4.60;;;3.10;;
13319;SDS011;59599;47.608;12.190;2022-11-12T06:31:05;3.47;;;2.87;;
13319;SDS011;59599;47.608;12.190;2022-11-12T06:33:31;6.30;;;2.60;;
13319;SDS011;59599;47.608;12.190;2022-11-12T06:35:58;4.20;;;2.83;;
13319;SDS011;59599;47.608;12.190;2022-11-12T06:38:27;4.50;;;2.63;;
13319;SDS011;59599;47.608;12.190;2022-11-12T06:41:00;3.73;;;2.40;;
13319;SDS011;59599;47.608;12.190;2022-11-12T06:43:26;7.87;;;2.50;;
13319;SDS011;59599;47.608;12.190;2022-11-12T06:45:53;5.30;;;3.00;;
13319;SDS011;59599;47.608;12.190;2022-11-12T06:48:23;3.50;;;2.83;;
13319;SDS011;59599;47.608;12.190;2022-11-12T06:50:48;4.13;;;3.10;;
13319;SDS011;59599;47.608;12.190;2022-11-12T06:53:14;6.97;;;3.00;;
13319;SDS011;59599;47.608;12.190;2022-11-12T06:55:39;6.23;;;3.17;;
13319;SDS011;59599;47.608;12.190;2022-11-12T06:58:05;7.10;;;4.37;;
13319;SDS011;59599;47.608;12.190;2022-11-12T07:00:30;7.70;;;5.70;;
13319;SDS011;59599;47.608;12.190;2022-11-12T07:02:56;5.70;;;4.77;;
13319;SDS011;59599;47.608;12.190;2022-11-12T07:05:22;5.07;;;3.63;;
13319;SDS011;59599;47.608;12.190;2022-11-12T07:07:47;4.13;;;3.13;;
13319;SDS011;59599;47.608;12.190;2022-11-12T07:10:13;5.43;;;2.90;;
13319;SDS011;59599;47.608;12.190;2022-11-12T07:12:38;3.60;;;2.67;;
13319;SDS011;59599;47.608;12.190;2022-11-12T07:15:04;4.27;;;2.80;;
13319;SDS011;59599;47.608;12.190;2022-11-12T07:17:30;9.03;;;6.50;;
13319;SDS011;59599;47.608;12.190;2022-11-12T07:19:55;8.50;;;4.97;;
13319;SDS011;59599;47.608;12.190;2022-11-12T07:22:21;11.33;;;7.20;;
13319;SDS011;59599;47.608;12.190;2022-11-12T07:24:46;7.70;;;5.20;;
13319;SDS011;59599;47.608;12.190;2022-11-12T07:27:13;8.17;;;4.60;;
13319;SDS011;59599;47.608;12.190;2022-11-12T07:29:39;5.27;;;3.60;;
13319;SDS011;59599;47.608;12.190;2022-11-12T07:32:05;16.50;;;12.83;;
13319;SDS011;59599;47.608;12.190;2022-11-12T07:34:31;8.97;;;6.07;;
13319;SDS011;59599;47.608;12.190;2022-11-12T07:36:56;6.90;;;5.40;;
13319;SDS011;59599;47.608;12.190;2022-11-12T07:39:22;4.80;;;3.77;;
13319;SDS011;59599;47.608;12.190;2022-11-12T07:41:47;7.33;;;4.07;;
13319;SDS011;59599;47.608;12.190;2022-11-12T07:44:13;13.07;;;6.83;;
13319;SDS011;59599;47.608;12.190;2022-11-12T07:46:38;12.83;;;7.57;;
13319;SDS011;59599;47.608;12.190;2022-11-12T07:49:04;12.10;;;7.17;;
13319;SDS011;59599;47.608;12.190;2022-11-12T07:51:29;14.77;;;8.10;;
13319;SDS011;59599;47.608;12.190;2022-11-12T07:53:56;10.07;;;6.47;;
13319;SDS011;59599;47.608;12.190;2022-11-12T07:56:24;11.10;;;7.73;;
13319;SDS011;59599;47.608;12.190;2022-11-12T07:58:50;11.60;;;8.00;;
13319;SDS011;59599;47.608;12.190;2022-11-12T08:01:24;10.03;;;7.23;;
13319;SDS011;59599;47.608;12.190;2022-11-12T08:03:56;8.07;;;3.23;;
13319;SDS011;59599;47.608;12.190;2022-11-12T08:06:22;3.67;;;2.57;;
13319;SDS011;59599;47.608;12.190;2022-11-12T08:08:51;3.23;;;2.90;;
13319;SDS011;59599;47.608;12.190;2022-11-12T08:11:17;2.97;;;2.30;;
13319;SDS011;59599;47.608;12.190;2022-11-12T08:13:43;4.17;;;2.83;;
13319;SDS011;59599;47.608;12.190;2022-11-12T08:16:08;2.87;;;2.40;;
13319;SDS011;59599;47.608;12.190;2022-11-12T08:18:34;4.43;;;3.10;;
13319;SDS011;59599;47.608;12.190;2022-11-12T08:21:00;6.10;;;3.77;;
13319;SDS011;59599;47.608;12.190;2022-11-12T08:23:27;4.53;;;3.10;;
13319;SDS011;59599;47.608;12.190;2022-11-12T08:26:00;9.93;;;4.00;;
13319;SDS011;59599;47.608;12.190;2022-11-12T08:28:27;4.37;;;3.37;;
13319;SDS011;59599;47.608;12.190;2022-11-12T08:30:53;5.77;;;4.17;;
13319;SDS011;59599;47.608;12.190;2022-11-12T08:33:20;4.53;;;3.37;;
13319;SDS011;59599;47.608;12.190;2022-11-12T08:35:46;4.40;;;2.73;;
13319;SDS011;59599;47.608;12.190;2022-11-12T08:38:12;5.27;;;3.40;;
13319;SDS011;59599;47.608;12.190;2022-11-12T08:40:38;5.07;;;3.10;;
13319;SDS011;59599;47.608;12.190;2022-11-12T08:43:05;3.83;;;3.10;;
13319;SDS011;59599;47.608;12.190;2022-11-12T08:45:32;4.20;;;3.37;;
13319;SDS011;59599;47.608;12.190;2022-11-12T08:48:04;4.40;;;3.37;;
13319;SDS011;59599;47.608;12.190;2022-11-12T08:50:32;6.23;;;3.30;;
13319;SDS011;59599;47.608;12.190;2022-11-12T08:52:59;3.80;;;3.20;;
13319;SDS011;59599;47.608;12.190;2022-11-12T08:55:26;6.53;;;3.17;;
13319;SDS011;59599;47.608;12.190;2022-11-12T08:57:52;7.30;;;3.27;;
13319;SDS011;59599;47.608;12.190;2022-11-12T09:00:17;5.13;;;3.53;;
13319;SDS011;59599;47.608;12.190;2022-11-12T09:02:43;6.40;;;3.63;;
13319;SDS011;59599;47.608;12.190;2022-11-12T09:05:08;4.40;;;3.40;;
13319;SDS011;59599;47.608;12.190;2022-11-12T09:07:34;5.33;;;3.30;;
13319;SDS011;59599;47.608;12.190;2022-11-12T09:09:59;6.03;;;3.20;;
13319;SDS011;59599;47.608;12.190;2022-11-12T09:12:25;7.13;;;3.00;;
13319;SDS011;59599;47.608;12.190;2022-11-12T09:14:51;4.63;;;2.63;;
13319;SDS011;59599;47.608;12.190;2022-11-12T09:17:17;3.33;;;2.80;;
13319;SDS011;59599;47.608;12.190;2022-11-12T09:19:42;4.30;;;2.77;;
13319;SDS011;59599;47.608;12.190;2022-11-12T09:22:08;4.77;;;3.37;;
13319;SDS011;59599;47.608;12.190;2022-11-12T09:24:33;4.17;;;2.93;;
13319;SDS011;59599;47.608;12.190;2022-11-12T09:26:59;3.03;;;2.50;;
13319;SDS011;59599;47.608;12.190;2022-11-12T09:29:25;3.13;;;2.70;;
13319;SDS011;59599;47.608;12.190;2022-11-12T09:31:50;3.63;;;2.77;;
13319;SDS011;59599;47.608;12.190;2022-11-12T09:34:16;5.13;;;2.70;;
13319;SDS011;59599;47.608;12.190;2022-11-12T09:36:41;4.03;;;2.80;;
13319;SDS011;59599;47.608;12.190;2022-11-12T09:39:07;7.17;;;3.10;;
13319;SDS011;59599;47.608;12.190;2022-11-12T09:41:39;3.70;;;2.83;;
13319;SDS011;59599;47.608;12.190;2022-11-12T09:44:15;4.97;;;2.70;;
13319;SDS011;59599;47.608;12.190;2022-11-12T09:46:48;3.70;;;2.60;;
13319;SDS011;59599;47.608;12.190;2022-11-12T09:51:55;4.67;;;2.80;;
13319;SDS011;59599;47.608;12.190;2022-11-12T09:54:28;3.57;;;2.77;;
13319;SDS011;59599;47.608;12.190;2022-11-12T09:56:56;4.33;;;3.10;;
13319;SDS011;59599;47.608;12.190;2022-11-12T09:59:23;3.30;;;2.60;;
13319;SDS011;59599;47.608;12.190;2022-11-12T10:02:05;3.07;;;2.77;;
13319;SDS011;59599;47.608;12.190;2022-11-12T10:05:02;2.80;;;2.20;;
13319;SDS011;59599;47.608;12.190;2022-11-12T10:10:35;3.27;;;2.77;;
13319;SDS011;59599;47.608;12.190;2022-11-12T10:19:12;8.83;;;2.30;;
13319;SDS011;59599;47.608;12.190;2022-11-12T10:22:01;2.63;;;2.10;;
13319;SDS011;59599;47.608;12.190;2022-11-12T10:24:34;5.60;;;2.60;;
13319;SDS011;59599;47.608;12.190;2022-11-12T10:27:07;3.27;;;2.03;;
13319;SDS011;59599;47.608;12.190;2022-11-12T10:29:44;2.93;;;2.47;;
13319;SDS011;59599;47.608;12.190;2022-11-12T10:32:20;2.43;;;1.90;;
13319;SDS011;59599;47.608;12.190;2022-11-12T10:34:45;3.73;;;3.00;;
13319;SDS011;59599;47.608;12.190;2022-11-12T10:37:27;4.40;;;2.67;;
13319;SDS011;59599;47.608;12.190;2022-11-12T10:45:29;3.23;;;2.13;;
13319;SDS011;59599;47.608;12.190;2022-11-12T10:47:56;2.50;;;2.30;;
13319;SDS011;59599;47.608;12.190;2022-11-12T10:50:38;2.10;;;1.90;;
13319;SDS011;59599;47.608;12.190;2022-11-12T10:53:06;3.00;;;2.23;;
13319;SDS011;59599;47.608;12.190;2022-11-12T10:55:35;3.17;;;2.30;;
13319;SDS011;59599;47.608;12.190;2022-11-12T11:00:34;3.57;;;2.00;;
13319;SDS011;59599;47.608;12.190;2022-11-12T11:03:02;3.77;;;2.23;;
13319;SDS011;59599;47.608;12.190;2022-11-12T11:05:50;2.30;;;1.87;;
13319;SDS011;59599;47.608;12.190;2022-11-12T11:08:29;6.20;;;2.20;;
13319;SDS011;59599;47.608;12.190;2022-11-12T11:13:53;2.13;;;1.70;;
13319;SDS011;59599;47.608;12.190;2022-11-12T11:19:13;2.23;;;1.90;;
13319;SDS011;59599;47.608;12.190;2022-11-12T11:29:30;3.87;;;2.20;;
13319;SDS011;59599;47.608;12.190;2022-11-12T11:34:53;4.27;;;2.30;;
13319;SDS011;59599;47.608;12.190;2022-11-12T11:37:31;4.33;;;2.40;;
13319;SDS011;59599;47.608;12.190;2022-11-12T11:40:21;3.30;;;2.10;;
13319;SDS011;59599;47.608;12.190;2022-11-12T11:45:58;2.67;;;2.27;;
13319;SDS011;59599;47.608;12.190;2022-11-12T11:51:35;4.00;;;2.60;;
13319;SDS011;59599;47.608;12.190;2022-11-12T11:56:40;3.37;;;2.60;;
13319;SDS011;59599;47.608;12.190;2022-11-12T12:10:01;4.67;;;2.50;;
13319;SDS011;59599;47.608;12.190;2022-11-12T12:18:08;2.20;;;1.93;;
13319;SDS011;59599;47.608;12.190;2022-11-12T12:26:27;2.43;;;2.10;;
13319;SDS011;59599;47.608;12.190;2022-11-12T12:29:05;2.37;;;1.90;;
13319;SDS011;59599;47.608;12.190;2022-11-12T12:31:43;2.30;;;1.80;;
13319;SDS011;59599;47.608;12.190;2022-11-12T12:34:22;3.50;;;1.90;;
13319;SDS011;59599;47.608;12.190;2022-11-12T12:37:01;4.80;;;2.87;;
13319;SDS011;59599;47.608;12.190;2022-11-12T12:39:54;4.77;;;3.30;;
13319;SDS011;59599;47.608;12.190;2022-11-12T12:43:01;3.80;;;3.00;;
13319;SDS011;59599;47.608;12.190;2022-11-12T12:45:43;4.87;;;3.47;;
13319;SDS011;59599;47.608;12.190;2022-11-12T12:48:12;4.97;;;4.00;;
13319;SDS011;59599;47.608;12.190;2022-11-12T12:50:43;7.30;;;3.23;;
13319;SDS011;59599;47.608;12.190;2022-11-12T12:55:38;3.30;;;3.00;;
13319;SDS011;59599;47.608;12.190;2022-11-12T12:58:03;3.50;;;2.50;;
13319;SDS011;59599;47.608;12.190;2022-11-12T13:00:39;3.97;;;3.03;;
13319;SDS011;59599;47.608;12.190;2022-11-12T13:03:10;4.03;;;2.70;;
13319;SDS011;59599;47.608;12.190;2022-11-12T13:05:36;5.30;;;3.17;;
13319;SDS011;59599;47.608;12.190;2022-11-12T13:08:11;3.53;;;2.47;;
13319;SDS011;59599;47.608;12.190;2022-11-12T13:21:12;6.90;;;3.07;;
13319;SDS011;59599;47.608;12.190;2022-11-12T13:23:49;4.27;;;2.87;;
13319;SDS011;59599;47.608;12.190;2022-11-12T13:35:13;4.63;;;2.70;;
13319;SDS011;59599;47.608;12.190;2022-11-12T13:37:46;4.07;;;2.70;;
13319;SDS011;59599;47.608;12.190;2022-11-12T13:40:29;9.27;;;3.50;;
13319;SDS011;59599;47.608;12.190;2022-11-12T13:48:25;4.73;;;3.83;;
13319;SDS011;59599;47.608;12.190;2022-11-12T13:50:54;6.37;;;3.13;;
13319;SDS011;59599;47.608;12.190;2022-11-12T13:53:23;5.77;;;2.70;;
13319;SDS011;59599;47.608;12.190;2022-11-12T13:55:52;4.73;;;2.93;;
13319;SDS011;59599;47.608;12.190;2022-11-12T13:58:23;6.10;;;3.93;;
13319;SDS011;59599;47.608;12.190;2022-11-12T14:00:54;6.53;;;3.60;;
13319;SDS011;59599;47.608;12.190;2022-11-12T14:03:23;6.93;;;3.33;;
13319;SDS011;59599;47.608;12.190;2022-11-12T14:05:52;3.43;;;2.70;;
13319;SDS011;59599;47.608;12.190;2022-11-12T14:11:45;7.23;;;4.60;;
13319;SDS011;59599;47.608;12.190;2022-11-12T14:14:03;6.07;;;4.90;;
13319;SDS011;59599;47.608;12.190;2022-11-12T14:22:15;9.57;;;5.50;;
13319;SDS011;59599;47.608;12.190;2022-11-12T14:24:43;7.63;;;5.40;;
13319;SDS011;59599;47.608;12.190;2022-11-12T14:32:48;6.37;;;4.50;;
13319;SDS011;59599;47.608;12.190;2022-11-12T14:37:49;9.83;;;3.80;;
13319;SDS011;59599;47.608;12.190;2022-11-12T14:40:19;7.33;;;4.10;;
13319;SDS011;59599;47.608;12.190;2022-11-12T14:42:46;5.83;;;3.60;;
13319;SDS011;59599;47.608;12.190;2022-11-12T14:45:16;7.17;;;5.23;;
13319;SDS011;59599;47.608;12.190;2022-11-12T14:47:44;8.00;;;5.90;;
13319;SDS011;59599;47.608;12.190;2022-11-12T14:50:16;6.10;;;4.70;;
13319;SDS011;59599;47.608;12.190;2022-11-12T14:52:50;11.93;;;9.70;;
13319;SDS011;59599;47.608;12.190;2022-11-12T14:55:25;7.73;;;5.63;;
13319;SDS011;59599;47.608;12.190;2022-11-12T14:57:54;7.30;;;5.23;;
13319;SDS011;59599;47.608;12.190;2022-11-12T15:02:54;8.57;;;6.20;;
13319;SDS011;59599;47.608;12.190;2022-11-12T15:05:21;7.47;;;6.17;;
13319;SDS011;59599;47.608;12.190;2022-11-12T15:07:57;12.43;;;8.00;;
13319;SDS011;59599;47.608;12.190;2022-11-12T15:13:07;19.83;;;15.50;;
13319;SDS011;59599;47.608;12.190;2022-11-12T15:15:36;18.97;;;13.53;;
13319;SDS011;59599;47.608;12.190;2022-11-12T15:18:05;27.43;;;20.90;;
13319;SDS011;59599;47.608;12.190;2022-11-12T15:20:38;18.43;;;13.13;;
13319;SDS011;59599;47.608;12.190;2022-11-12T15:23:04;12.10;;;5.53;;
13319;SDS011;59599;47.608;12.190;2022-11-12T15:25:30;8.70;;;4.50;;
13319;SDS011;59599;47.608;12.190;2022-11-12T15:28:10;10.00;;;5.50;;
13319;SDS011;59599;47.608;12.190;2022-11-12T15:30:37;8.90;;;6.60;;
13319;SDS011;59599;47.608;12.190;2022-11-12T15:33:06;11.17;;;8.13;;
13319;SDS011;59599;47.608;12.190;2022-11-12T15:35:36;14.03;;;9.90;;
13319;SDS011;59599;47.608;12.190;2022-11-12T15:38:09;10.40;;;6.00;;
13319;SDS011;59599;47.608;12.190;2022-11-12T15:40:59;10.83;;;6.70;;
13319;SDS011;59599;47.608;12.190;2022-11-12T15:43:27;8.57;;;6.80;;
13319;SDS011;59599;47.608;12.190;2022-11-12T15:45:56;9.33;;;6.93;;
13319;SDS011;59599;47.608;12.190;2022-11-12T15:48:22;11.53;;;7.37;;
13319;SDS011;59599;47.608;12.190;2022-11-12T15:50:47;11.03;;;6.97;;
13319;SDS011;59599;47.608;12.190;2022-11-12T15:53:14;12.27;;;8.07;;
13319;SDS011;59599;47.608;12.190;2022-11-12T15:55:40;17.80;;;11.53;;
13319;SDS011;59599;47.608;12.190;2022-11-12T15:58:10;17.07;;;10.90;;
13319;SDS011;59599;47.608;12.190;2022-11-12T16:00:41;22.67;;;13.17;;
13319;SDS011;59599;47.608;12.190;2022-11-12T16:05:40;13.63;;;10.47;;
13319;SDS011;59599;47.608;12.190;2022-11-12T16:08:06;14.60;;;10.80;;
13319;SDS011;59599;47.608;12.190;2022-11-12T16:10:32;12.13;;;8.13;;
13319;SDS011;59599;47.608;12.190;2022-11-12T16:12:58;11.60;;;8.33;;
13319;SDS011;59599;47.608;12.190;2022-11-12T16:15:25;15.50;;;9.97;;
13319;SDS011;59599;47.608;12.190;2022-11-12T16:17:51;18.40;;;8.87;;
13319;SDS011;59599;47.608;12.190;2022-11-12T16:20:19;12.20;;;8.90;;
13319;SDS011;59599;47.608;12.190;2022-11-12T16:22:47;14.37;;;8.87;;
13319;SDS011;59599;47.608;12.190;2022-11-12T16:25:13;12.33;;;7.80;;
13319;SDS011;59599;47.608;12.190;2022-11-12T16:27:39;16.20;;;8.57;;
13319;SDS011;59599;47.608;12.190;2022-11-12T16:30:05;13.77;;;8.90;;
13319;SDS011;59599;47.608;12.190;2022-11-12T16:32:38;11.53;;;8.17;;
13319;SDS011;59599;47.608;12.190;2022-11-12T16:35:03;14.37;;;8.17;;
13319;SDS011;59599;47.608;12.190;2022-11-12T16:37:29;20.40;;;9.57;;
13319;SDS011;59599;47.608;12.190;2022-11-12T16:39:55;17.90;;;11.17;;
13319;SDS011;59599;47.608;12.190;2022-11-12T16:42:21;14.00;;;10.27;;
13319;SDS011;59599;47.608;12.190;2022-11-12T16:44:46;14.27;;;9.33;;
13319;SDS011;59599;47.608;12.190;2022-11-12T16:47:12;12.30;;;9.40;;
13319;SDS011;59599;47.608;12.190;2022-11-12T16:49:37;12.33;;;8.43;;
13319;SDS011;59599;47.608;12.190;2022-11-12T16:52:03;11.73;;;7.87;;
13319;SDS011;59599;47.608;12.190;2022-11-12T16:54:29;15.40;;;8.87;;
13319;SDS011;59599;47.608;12.190;2022-11-12T16:56:54;13.10;;;8.27;;
13319;SDS011;59599;47.608;12.190;2022-11-12T16:59:20;12.70;;;8.63;;
13319;SDS011;59599;47.608;12.190;2022-11-12T17:01:46;17.87;;;10.07;;
13319;SDS011;59599;47.608;12.190;2022-11-12T17:04:11;13.47;;;8.87;;
13319;SDS011;59599;47.608;12.190;2022-11-12T17:06:38;15.80;;;10.83;;
13319;SDS011;59599;47.608;12.190;2022-11-12T17:09:04;14.70;;;10.67;;
13319;SDS011;59599;47.608;12.190;2022-11-12T17:11:32;26.07;;;12.70;;
13319;SDS011;59599;47.608;12.190;2022-11-12T17:13:59;23.90;;;13.53;;
13319;SDS011;59599;47.608;12.190;2022-11-12T17:16:25;33.93;;;20.13;;
13319;SDS011;59599;47.608;12.190;2022-11-12T17:18:54;24.50;;;15.23;;
13319;SDS011;59599;47.608;12.190;2022-11-12T17:21:20;23.27;;;14.80;;
13319;SDS011;59599;47.608;12.190;2022-11-12T17:23:46;22.07;;;13.53;;
13319;SDS011;59599;47.608;12.190;2022-11-12T17:26:13;22.63;;;14.83;;
13319;SDS011;59599;47.608;12.190;2022-11-12T17:28:45;18.10;;;13.03;;
13319;SDS011;59599;47.608;12.190;2022-11-12T17:31:12;17.10;;;11.10;;
13319;SDS011;59599;47.608;12.190;2022-11-12T17:33:44;19.33;;;13.17;;
13319;SDS011;59599;47.608;12.190;2022-11-12T17:36:12;12.77;;;9.67;;
13319;SDS011;59599;47.608;12.190;2022-11-12T17:38:39;21.90;;;12.30;;
13319;SDS011;59599;47.608;12.190;2022-11-12T17:41:05;22.10;;;12.97;;
13319;SDS011;59599;47.608;12.190;2022-11-12T17:43:32;22.43;;;12.50;;
13319;SDS011;59599;47.608;12.190;2022-11-12T17:45:58;24.93;;;11.93;;
13319;SDS011;59599;47.608;12.190;2022-11-12T17:48:24;20.83;;;13.73;;
13319;SDS011;59599;47.608;12.190;2022-11-12T17:50:51;28.03;;;17.10;;
13319;SDS011;59599;47.608;12.190;2022-11-12T17:53:26;32.00;;;15.47;;
13319;SDS011;59599;47.608;12.190;2022-11-12T17:55:56;28.37;;;14.33;;
13319;SDS011;59599;47.608;12.190;2022-11-12T17:58:23;27.10;;;14.90;;
13319;SDS011;59599;47.608;12.190;2022-11-12T18:00:49;28.90;;;16.23;;
13319;SDS011;59599;47.608;12.190;2022-11-12T18:03:15;30.57;;;16.93;;
13319;SDS011;59599;47.608;12.190;2022-11-12T18:05:42;39.60;;;20.87;;
13319;SDS011;59599;47.608;12.190;2022-11-12T18:08:07;32.67;;;17.20;;
13319;SDS011;59599;47.608;12.190;2022-11-12T18:10:33;25.40;;;14.83;;
13319;SDS011;59599;47.608;12.190;2022-11-12T18:12:59;18.70;;;12.27;;
13319;SDS011;59599;47.608;12.190;2022-11-12T18:15:25;19.80;;;11.90;;
13319;SDS011;59599;47.608;12.190;2022-11-12T18:17:50;16.23;;;10.13;;
13319;SDS011;59599;47.608;12.190;2022-11-12T18:20:16;12.77;;;9.13;;
13319;SDS011;59599;47.608;12.190;2022-11-12T18:22:43;12.97;;;8.90;;
13319;SDS011;59599;47.608;12.190;2022-11-12T18:25:09;10.80;;;8.40;;
13319;SDS011;59599;47.608;12.190;2022-11-12T18:27:35;12.10;;;8.70;;
13319;SDS011;59599;47.608;12.190;2022-11-12T18:30:00;21.13;;;11.53;;
13319;SDS011;59599;47.608;12.190;2022-11-12T18:32:26;21.70;;;13.10;;
13319;SDS011;59599;47.608;12.190;2022-11-12T18:34:52;14.77;;;9.43;;
13319;SDS011;59599;47.608;12.190;2022-11-12T18:37:17;12.17;;;9.67;;
13319;SDS011;59599;47.608;12.190;2022-11-12T18:39:43;11.57;;;8.57;;
13319;SDS011;59599;47.608;12.190;2022-11-12T18:42:08;21.20;;;13.20;;
13319;SDS011;59599;47.608;12.190;2022-11-12T18:44:34;19.73;;;13.10;;
13319;SDS011;59599;47.608;12.190;2022-11-12T18:47:00;20.17;;;13.97;;
13319;SDS011;59599;47.608;12.190;2022-11-12T18:49:26;17.20;;;12.23;;
13319;SDS011;59599;47.608;12.190;2022-11-12T18:51:51;22.17;;;14.07;;
13319;SDS011;59599;47.608;12.190;2022-11-12T18:54:17;17.33;;;11.57;;
13319;SDS011;59599;47.608;12.190;2022-11-12T18:56:42;20.13;;;14.30;;
13319;SDS011;59599;47.608;12.190;2022-11-12T18:59:08;17.27;;;11.73;;
13319;SDS011;59599;47.608;12.190;2022-11-12T19:01:35;15.43;;;10.63;;
13319;SDS011;59599;47.608;12.190;2022-11-12T19:04:01;14.43;;;9.57;;
13319;SDS011;59599;47.608;12.190;2022-11-12T19:06:26;16.00;;;10.43;;
13319;SDS011;59599;47.608;12.190;2022-11-12T19:08:56;12.00;;;9.43;;
13319;SDS011;59599;47.608;12.190;2022-11-12T19:11:25;13.87;;;10.30;;
13319;SDS011;59599;47.608;12.190;2022-11-12T19:13:51;18.13;;;12.00;;
13319;SDS011;59599;47.608;12.190;2022-11-12T19:16:18;14.47;;;10.30;;
13319;SDS011;59599;47.608;12.190;2022-11-12T19:18:46;13.90;;;9.40;;
13319;SDS011;59599;47.608;12.190;2022-11-12T19:21:14;13.27;;;10.63;;
13319;SDS011;59599;47.608;12.190;2022-11-12T19:23:46;13.90;;;8.60;;
13319;SDS011;59599;47.608;12.190;2022-11-12T19:26:13;13.50;;;8.97;;
13319;SDS011;59599;47.608;12.190;2022-11-12T19:28:40;13.90;;;9.40;;
13319;SDS011;59599;47.608;12.190;2022-11-12T19:31:07;15.00;;;7.53;;
13319;SDS011;59599;47.608;12.190;2022-11-12T19:33:37;12.53;;;7.23;;
13319;SDS011;59599;47.608;12.190;2022-11-12T19:36:04;9.97;;;8.30;;
13319;SDS011;59599;47.608;12.190;2022-11-12T19:38:31;12.43;;;9.03;;
13319;SDS011;59599;47.608;12.190;2022-11-12T19:41:06;17.17;;;9.77;;
13319;SDS011;59599;47.608;12.190;2022-11-12T19:43:33;14.87;;;10.47;;
13319;SDS011;59599;47.608;12.190;2022-11-12T19:45:59;14.47;;;10.20;;
13319;SDS011;59599;47.608;12.190;2022-11-12T19:48:25;25.97;;;16.67;;
13319;SDS011;59599;47.608;12.190;2022-11-12T19:50:51;21.83;;;13.50;;
13319;SDS011;59599;47.608;12.190;2022-11-12T19:53:17;21.40;;;14.80;;
13319;SDS011;59599;47.608;12.190;2022-11-12T19:55:43;27.23;;;16.67;;
13319;SDS011;59599;47.608;12.190;2022-11-12T19:58:08;23.37;;;16.07;;
13319;SDS011;59599;47.608;12.190;2022-11-12T20:00:34;25.07;;;14.83;;
13319;SDS011;59599;47.608;12.190;2022-11-12T20:03:00;23.70;;;16.60;;
13319;SDS011;59599;47.608;12.190;2022-11-12T20:05:25;19.17;;;12.53;;
13319;SDS011;59599;47.608;12.190;2022-11-12T20:07:51;19.17;;;12.10;;
13319;SDS011;59599;47.608;12.190;2022-11-12T20:10:17;26.70;;;14.33;;
13319;SDS011;59599;47.608;12.190;2022-11-12T20:12:43;16.43;;;10.73;;
13319;SDS011;59599;47.608;12.190;2022-11-12T20:15:08;12.83;;;9.50;;
13319;SDS011;59599;47.608;12.190;2022-11-12T20:17:35;13.53;;;9.40;;
13319;SDS011;59599;47.608;12.190;2022-11-12T20:20:04;27.47;;;17.97;;
13319;SDS011;59599;47.608;12.190;2022-11-12T20:22:30;29.10;;;18.30;;
13319;SDS011;59599;47.608;12.190;2022-11-12T20:24:57;16.30;;;11.43;;
13319;SDS011;59599;47.608;12.190;2022-11-12T20:27:23;12.97;;;8.87;;
13319;SDS011;59599;47.608;12.190;2022-11-12T20:29:49;12.27;;;8.67;;
13319;SDS011;59599;47.608;12.190;2022-11-12T20:32:14;12.17;;;8.13;;
13319;SDS011;59599;47.608;12.190;2022-11-12T20:34:40;12.90;;;8.43;;
13319;SDS011;59599;47.608;12.190;2022-11-12T20:37:06;16.70;;;9.67;;
13319;SDS011;59599;47.608;12.190;2022-11-12T20:39:31;10.73;;;8.40;;
13319;SDS011;59599;47.608;12.190;2022-11-12T20:41:57;13.73;;;9.73;;
13319;SDS011;59599;47.608;12.190;2022-11-12T20:44:23;15.03;;;10.83;;
13319;SDS011;59599;47.608;12.190;2022-11-12T20:46:48;12.77;;;9.27;;
13319;SDS011;59599;47.608;12.190;2022-11-12T20:49:14;15.07;;;10.13;;
13319;SDS011;59599;47.608;12.190;2022-11-12T20:51:39;13.47;;;8.90;;
13319;SDS011;59599;47.608;12.190;2022-11-12T20:54:07;16.90;;;9.93;;
13319;SDS011;59599;47.608;12.190;2022-11-12T20:56:33;18.77;;;10.73;;
13319;SDS011;59599;47.608;12.190;2022-11-12T20:58:59;17.90;;;10.37;;
13319;SDS011;59599;47.608;12.190;2022-11-12T21:01:25;12.57;;;9.90;;
13319;SDS011;59599;47.608;12.190;2022-11-12T21:03:51;14.63;;;9.07;;
13319;SDS011;59599;47.608;12.190;2022-11-12T21:06:18;15.30;;;9.80;;
13319;SDS011;59599;47.608;12.190;2022-11-12T21:08:45;11.33;;;8.30;;
13319;SDS011;59599;47.608;12.190;2022-11-12T21:11:12;11.27;;;8.27;;
13319;SDS011;59599;47.608;12.190;2022-11-12T21:13:40;12.03;;;7.80;;
13319;SDS011;59599;47.608;12.190;2022-11-12T21:16:06;15.67;;;8.33;;
13319;SDS011;59599;47.608;12.190;2022-11-12T21:18:33;12.97;;;9.37;;
13319;SDS011;59599;47.608;12.190;2022-11-12T21:21:04;12.13;;;8.57;;
13319;SDS011;59599;47.608;12.190;2022-11-12T21:23:33;15.00;;;8.63;;
13319;SDS011;59599;47.608;12.190;2022-11-12T21:26:08;13.17;;;8.87;;
13319;SDS011;59599;47.608;12.190;2022-11-12T21:28:37;15.20;;;8.67;;
13319;SDS011;59599;47.608;12.190;2022-11-12T21:31:09;11.57;;;7.77;;